createdAt,value
2024-04-16T04:01:15.352Z,100.00
2024-04-16T04:03:44.515Z,100.00
2024-04-16T04:06:13.867Z,100.00
2024-04-16T04:08:40.864Z,100.00
2024-04-16T04:11:09.735Z,100.00
2024-04-16T04:13:37.963Z,100.00
2024-04-16T04:19:03.761Z,100.00
2024-04-16T04:21:57.859Z,100.00
2024-04-16T04:29:08.083Z,100.00
2024-04-16T04:31:19.964Z,100.00
2024-04-16T04:33:58.046Z,100.00
2024-04-16T04:36:24.990Z,100.00
2024-04-16T04:40:23.017Z,100.00
2024-04-16T04:42:27.456Z,100.00
2024-04-16T04:45:21.236Z,100.00
2024-04-16T04:47:51.134Z,100.00
2024-04-16T04:50:19.388Z,100.00
2024-04-16T04:52:54.726Z,100.00
2024-04-16T04:55:33.111Z,100.00
2024-04-16T04:58:04.034Z,100.00
2024-04-16T05:00:31.084Z,100.00
2024-04-16T05:02:58.553Z,100.00
2024-04-16T05:05:29.033Z,100.00
2024-04-16T05:07:55.813Z,100.00
2024-04-16T05:10:22.642Z,100.00
2024-04-16T05:12:49.517Z,100.00
2024-04-16T05:15:16.322Z,100.00
2024-04-16T05:18:11.555Z,100.00
2024-04-16T05:24:24.673Z,100.00
2024-04-16T05:27:14.636Z,100.00
2024-04-16T05:45:46.475Z,100.00
2024-04-16T05:48:13.561Z,100.00
2024-04-16T05:57:29.149Z,100.00
2024-04-16T07:44:53.904Z,100.00
2024-04-16T07:47:29.811Z,100.00
2024-04-16T07:51:01.708Z,100.00
2024-04-16T08:47:40.415Z,100.00
2024-04-16T08:54:07.763Z,100.00
2024-04-16T08:57:59.373Z,100.00
2024-04-16T09:11:23.886Z,100.00
2024-04-16T09:17:06.926Z,98.55
2024-04-16T09:20:04.521Z,99.08
2024-04-16T09:22:31.652Z,95.05
2024-04-16T09:25:30.992Z,95.47
2024-04-16T09:27:58.299Z,98.29
2024-04-16T09:30:25.321Z,98.60
2024-04-16T09:33:11.998Z,98.40
2024-04-16T09:35:39.911Z,98.46
2024-04-16T09:38:08.759Z,95.44
2024-04-16T09:40:36.432Z,94.13
2024-04-16T09:43:06.316Z,91.81
2024-04-16T09:45:34.100Z,93.85
2024-04-16T09:48:08.897Z,91.04
2024-04-16T09:50:49.852Z,91.09
2024-04-16T09:53:24.650Z,93.88
2024-04-16T09:55:53.323Z,93.55
2024-04-16T09:58:21.589Z,93.58
2024-04-16T10:00:53.861Z,93.18
2024-04-16T10:03:28.695Z,91.89
2024-04-16T10:05:58.585Z,93.52
2024-04-16T10:08:28.756Z,93.74
2024-04-16T10:11:14.778Z,95.42
2024-04-16T10:14:12.878Z,91.47
2024-04-16T10:19:42.311Z,91.97
2024-04-16T10:22:14.211Z,89.45
2024-04-16T10:24:55.428Z,91.16
2024-04-16T10:27:39.867Z,85.44
2024-04-16T10:33:15.956Z,86.67
2024-04-16T10:35:45.764Z,88.19
2024-04-16T10:38:12.488Z,88.30
2024-04-16T10:40:39.714Z,91.16
2024-04-16T10:43:18.127Z,89.63
2024-04-16T10:45:47.099Z,87.14
2024-04-16T10:48:22.907Z,85.22
2024-04-16T10:50:53.037Z,83.20
2024-04-16T10:56:05.951Z,84.56
2024-04-16T10:58:35.667Z,86.55
2024-04-16T11:01:03.294Z,83.64
2024-04-16T11:03:35.119Z,85.40
2024-04-16T11:06:02.236Z,86.84
2024-04-16T11:08:29.002Z,90.66
2024-04-16T11:11:05.996Z,93.56
2024-04-16T15:16:44.320Z,82.10
2024-04-16T15:19:11.205Z,84.09
2024-04-16T15:21:38.318Z,83.81
2024-04-16T15:24:05.371Z,82.97
2024-04-16T16:39:13.452Z,80.31
2024-04-16T16:41:50.824Z,77.95
2024-04-16T16:44:17.490Z,78.23
2024-04-16T16:46:44.422Z,78.97
2024-04-16T16:49:11.284Z,77.54
2024-04-16T17:41:11.308Z,82.93
2024-04-16T17:43:38.158Z,83.51
2024-04-16T18:16:37.068Z,85.65
2024-04-16T18:19:08.457Z,86.19
2024-04-16T18:23:21.774Z,86.27
